LYBEBKPR

Guest
Details From LYBE - Belgrade
To BKPR - Pristina Intl
Flight Number -
Tags generated
Created
Modified
Stats Distance 139 nm / 257 km
Max Altitude 13,700 ft / 4,176 m
Waypoints 4
Social Downloads 2
Likes 0
Share VATSIM

Download

Looking for another format? Having issues loading an existing format? Contact us
Advertisement - Login to hide

Notes

Basic altitude profile: - Ascent Rate: 2500ft/min - Ascent Speed: 250kts - Cruise Altitude: 35000ft - Cruise Speed: 420kts - Descent Rate: 1500ft/min - Descent Speed: 250kts Options: - Use NATs: yes - Use PACOTS: yes - Use low airways: yes - Use high airways: yes

Route

LYBE ORVAN M749 NEVAK BKPR

ID Type Via Altitude (ft/m) Position (lat/lon) Dist (leg/tot) Name
O LYBE APT - 0 / 0 44.81843 / 20.30921 - / 0 nm Belgrade
ORVAN FIX - 7,400 / 2,256 44.49189 / 20.48333 20 / 20 nm
NEVAK FIX M749 (AWY-LO) 13,700 / 4,176 44.21206 / 20.60267 17 / 38 nm
O BKPR APT - 0 / 0 42.57453 / 21.03568 100 / 138 nm Pristina Intl

Altitude Profile

Advertisement - Login to hide

LYBE

Details ICAO LYBE (BEG)
Name Belgrade
Region Serbia and Montenegro
Timezone Europe/Belgrade (UTC+2.0)
Stats Elevation 334 ft / 102 m (AMSL)
Location 44.818500° 20.309200°
Runways 1
Magnetic Variation 4.764° E

METAR

LYBE 190930Z 34003KT 260V040 8000 NSC 19/09 Q1020 NOSIG

Decode

TAF

TAF LYBE 190500Z 1906/2006 27005KT CAVOK TX20/1912Z TN10/2005Z TEMPO 1920/1924 5000 SHRA SCT030TCU SCT033

Decode

Departure Runways

ID Width Length Bearing (true/mag) Surface Threshold Overrun Markings Lighting
12 148 ft / 45 m 11,149 ft / 3,398 m 122.00° / 117.24° ASPHALT 0 ft / 0 m 0 ft / 0 m PREC-APP CENTERLINE EDGE THRESHOLD ALSF-II REIL-OMNI
30 148 ft / 45 m 11,149 ft / 3,398 m 302.03° / 297.26° ASPHALT 1,299 ft / 396 m 194 ft / 59 m PREC-APP CENTERLINE EDGE THRESHOLD ALSF-I REIL-OMNI

BKPR

Details ICAO BKPR (PRN)
Name Pristina Intl
Region Kosovo
Timezone Europe/Belgrade (UTC+2.0)
Stats Elevation 1,789 ft / 545 m (AMSL)
Location 42.574500° 21.035700°
Runways 1
Magnetic Variation 4.641° E

METAR

BKPR 190930Z VRB01KT 8000 SCT090 17/08 Q1019 NOSIG

Decode

TAF

TAF BKPR 190530Z 1906/2006 01008KT 9999 FEW040 SCT080 TEMPO 1906/1907 3000 BR

Decode

Destination Runways

ID Width Length Bearing (true/mag) Surface Threshold Overrun Markings Lighting
17 148 ft / 45 m 8,175 ft / 2,492 m 175.71° / 171.07° ASPHALT 0 ft / 0 m 98 ft / 30 m PREC-APP EDGE THRESHOLD CALVERT TDZ REIL-OMNI
35 148 ft / 45 m 8,175 ft / 2,492 m 355.71° / 351.07° ASPHALT 0 ft / 0 m 98 ft / 30 m APP EDGE THRESHOLD CALVERT TDZ

Approach Navaids

Runway Type Ident Frequency Range Bearing (true/mag) Slope Elevation
17 DME PRS 110.10 MHz 18 nm / 33 km - - 1,794 ft / 547 m (AMSL)
17 LOC-ILS PRS 110.10 MHz 18 nm / 33 km 175.69° / 171.05 ° - 1,794 ft / 547 m (AMSL)
17 GS PRS 110.10 MHz 10 nm / 19 km 176.42° / 171.78 ° 3.00° 1,794 ft / 547 m (AMSL)

Popular Alternatives